createdAt,value
2018-12-02T00:00:23.664Z,0.20
2018-12-02T00:02:52.000Z,0.40
2018-12-02T00:05:20.171Z,0.20
2018-12-02T00:07:48.358Z,0.10
2018-12-02T00:10:17.538Z,0.20
2018-12-02T00:12:45.710Z,0.47
2018-12-02T00:15:14.922Z,0.47
2018-12-02T00:17:43.090Z,0.53
2018-12-02T00:20:13.004Z,0.20
2018-12-02T00:22:41.186Z,0.70
2018-12-02T00:25:10.397Z,0.30
2018-12-02T00:27:38.627Z,0.60
2018-12-02T00:30:14.131Z,0.33
2018-12-02T00:32:42.350Z,0.13
2018-12-02T00:35:11.709Z,0.13
2018-12-02T00:37:40.108Z,0.20
2018-12-02T00:40:10.511Z,0.23
2018-12-02T00:42:38.714Z,0.30
2018-12-02T00:45:09.458Z,0.47
2018-12-02T00:47:37.654Z,0.80
2018-12-02T00:50:08.002Z,0.53
2018-12-02T00:52:36.195Z,0.40
2018-12-02T00:55:06.182Z,0.23
2018-12-02T00:57:34.434Z,0.30
2018-12-02T01:00:02.687Z,0.53
2018-12-02T01:02:30.875Z,0.20
2018-12-02T01:04:59.062Z,0.27
2018-12-02T01:07:27.501Z,0.10
2018-12-02T01:09:55.702Z,0.10
2018-12-02T01:12:23.878Z,0.40
2018-12-02T01:14:52.080Z,0.10
2018-12-02T01:17:20.258Z,0.30
2018-12-02T01:19:48.632Z,1.90
2018-12-02T01:22:16.854Z,0.40
2018-12-02T01:24:45.144Z,0.40
2018-12-02T01:27:13.318Z,0.30
2018-12-02T01:29:41.832Z,0.20
2018-12-02T01:32:10.059Z,0.30
2018-12-02T01:34:38.260Z,0.40
2018-12-02T01:37:06.457Z,0.10
2018-12-02T01:39:34.670Z,0.20
2018-12-02T01:42:02.846Z,0.20
2018-12-02T01:44:31.052Z,0.20
2018-12-02T01:46:59.239Z,0.27
2018-12-02T01:49:27.442Z,0.77
2018-12-02T01:51:55.664Z,4.23
2018-12-02T01:54:23.862Z,0.30
2018-12-02T01:56:52.083Z,0.30
2018-12-02T01:59:20.279Z,0.97
2018-12-02T02:01:48.463Z,0.50
2018-12-02T02:04:16.647Z,0.33
2018-12-02T02:06:44.824Z,1.23
2018-12-02T02:09:12.987Z,1.50
2018-12-02T02:11:41.188Z,0.20
2018-12-02T02:14:09.359Z,0.30
2018-12-02T02:16:37.843Z,0.83
2018-12-02T02:19:06.101Z,1.27
2018-12-02T02:21:34.300Z,0.27
2018-12-02T02:24:02.494Z,0.47
2018-12-02T02:26:30.697Z,0.30
2018-12-02T02:28:58.880Z,0.20
2018-12-02T02:31:27.188Z,0.30
2018-12-02T02:33:55.395Z,0.97
2018-12-02T02:36:23.570Z,2.33
2018-12-02T02:38:52.106Z,0.50
2018-12-02T02:41:20.324Z,1.13
2018-12-02T02:43:48.494Z,1.30
2018-12-02T02:46:16.715Z,1.40
2018-12-02T02:57:52.355Z,0.53
2018-12-02T03:00:21.351Z,0.27
2018-12-02T03:09:46.746Z,0.43
2018-12-02T03:12:15.002Z,0.20
2018-12-02T03:14:43.186Z,0.20
2018-12-02T03:17:11.404Z,0.03
2018-12-02T03:19:39.659Z,0.20
2018-12-02T03:22:07.878Z,0.40
2018-12-02T03:24:37.087Z,0.50
2018-12-02T03:27:05.376Z,0.17
2018-12-02T03:29:33.563Z,0.13
2018-12-02T03:32:01.786Z,0.47
2018-12-02T03:34:29.967Z,0.10
2018-12-02T03:36:58.183Z,0.03
2018-12-02T03:39:26.395Z,0.20
2018-12-02T03:41:54.599Z,0.33
2018-12-02T03:44:22.787Z,0.10
2018-12-02T03:46:51.001Z,0.20
2018-12-02T03:49:20.038Z,0.10
2018-12-02T03:51:48.363Z,0.07
2018-12-02T03:54:16.681Z,1.23
2018-12-02T03:56:47.875Z,0.10
2018-12-02T03:59:16.411Z,0.37
2018-12-02T04:01:44.680Z,0.10
2018-12-02T04:04:12.891Z,0.00
2018-12-02T04:06:41.091Z,0.30
2018-12-02T04:09:09.705Z,0.07
2018-12-02T04:11:38.672Z,0.10
2018-12-02T04:14:06.965Z,0.10
2018-12-02T04:16:35.179Z,0.00
2018-12-02T04:19:03.378Z,0.20
2018-12-02T04:21:31.599Z,0.20
2018-12-02T04:23:59.847Z,0.27
2018-12-02T04:26:28.111Z,0.10
2018-12-02T04:28:56.340Z,0.60
2018-12-02T04:31:24.597Z,0.13
2018-12-02T04:33:52.771Z,0.20
2018-12-02T04:36:21.295Z,0.47
2018-12-02T04:38:49.504Z,0.43
2018-12-02T04:41:17.746Z,0.60
2018-12-02T04:43:45.916Z,0.27
2018-12-02T04:46:14.111Z,0.00
2018-12-02T04:48:42.752Z,0.10
2018-12-02T04:51:10.958Z,0.10
2018-12-02T04:53:39.142Z,0.30
2018-12-02T04:59:00.565Z,0.10
2018-12-02T05:01:28.962Z,0.10
2018-12-02T05:03:57.146Z,0.10
2018-12-02T05:06:31.610Z,0.10
2018-12-02T05:09:10.489Z,0.50
2018-12-02T05:11:38.680Z,0.30
2018-12-02T05:14:06.916Z,0.20
2018-12-02T05:16:35.113Z,0.40
2018-12-02T05:19:03.279Z,0.23
2018-12-02T05:21:34.518Z,0.20
2018-12-02T05:24:02.758Z,0.37
2018-12-02T05:26:30.937Z,0.10
2018-12-02T05:28:59.179Z,0.10
2018-12-02T05:31:27.395Z,0.03
2018-12-02T05:33:55.550Z,0.20
2018-12-02T05:36:23.983Z,0.10
2018-12-02T05:38:52.171Z,0.20
2018-12-02T05:41:21.359Z,0.10
2018-12-02T05:43:49.550Z,0.17
2018-12-02T05:46:17.747Z,0.00
2018-12-02T05:48:45.930Z,0.00
2018-12-02T05:51:14.127Z,0.60
2018-12-02T05:53:42.310Z,0.80
2018-12-02T05:56:10.533Z,0.10
2018-12-02T05:58:38.787Z,0.00
2018-12-02T06:01:07.021Z,0.73
2018-12-02T06:03:35.243Z,0.30
2018-12-02T06:06:03.455Z,0.10
2018-12-02T06:08:31.723Z,1.10
2018-12-02T06:10:59.961Z,0.37
2018-12-02T06:13:28.182Z,0.10
2018-12-02T06:15:56.385Z,0.00
2018-12-02T06:18:24.584Z,0.20
2018-12-02T06:20:52.866Z,0.07
2018-12-02T06:23:21.099Z,0.30
2018-12-02T06:25:49.479Z,0.10
2018-12-02T06:28:17.734Z,0.13
2018-12-02T06:30:45.910Z,0.30
2018-12-02T06:33:14.106Z,0.50
2018-12-02T06:35:42.413Z,0.50
2018-12-02T06:38:10.626Z,1.40
2018-12-02T06:40:38.816Z,0.20
2018-12-02T06:43:07.670Z,0.23
2018-12-02T06:45:35.859Z,0.20
2018-12-02T06:48:04.048Z,0.07
2018-12-02T06:50:32.212Z,0.80
2018-12-02T06:53:00.619Z,1.27
2018-12-02T06:55:41.490Z,0.53
2018-12-02T06:58:29.260Z,0.10
2018-12-02T07:01:04.407Z,0.63
2018-12-02T07:03:40.907Z,0.20
2018-12-02T07:06:09.075Z,0.30
2018-12-02T07:08:37.300Z,0.30
2018-12-02T07:11:05.475Z,0.67
2018-12-02T07:13:33.662Z,0.30
2018-12-02T07:16:01.838Z,0.20
2018-12-02T07:18:31.371Z,0.30
2018-12-02T07:20:59.539Z,0.50
2018-12-02T07:23:27.755Z,0.40
2018-12-02T07:25:55.932Z,0.20
2018-12-02T07:28:24.147Z,0.20
2018-12-02T07:30:52.422Z,0.20
2018-12-02T07:33:20.627Z,1.00
2018-12-02T07:35:48.795Z,0.30
2018-12-02T07:38:28.034Z,2.00
2018-12-02T07:40:57.325Z,0.30
2018-12-02T07:43:25.522Z,0.23
2018-12-02T07:45:53.705Z,0.40
2018-12-02T07:48:21.932Z,0.63
2018-12-02T07:50:50.172Z,1.53
2018-12-02T07:53:18.346Z,0.40
2018-12-02T07:55:46.506Z,1.80
2018-12-02T07:58:14.707Z,0.47
2018-12-02T08:00:43.128Z,1.17
2018-12-02T08:03:11.324Z,0.50
2018-12-02T08:05:40.541Z,0.93
2018-12-02T08:08:08.869Z,0.70
2018-12-02T08:10:37.035Z,1.03
2018-12-02T08:13:05.951Z,0.67
2018-12-02T08:15:34.121Z,0.37
2018-12-02T08:18:02.339Z,2.77
2018-12-02T08:20:30.530Z,0.43
2018-12-02T08:22:58.723Z,1.37
2018-12-02T08:25:26.911Z,0.50
2018-12-02T08:27:55.100Z,0.43
2018-12-02T08:30:25.223Z,0.30
2018-12-02T08:32:53.951Z,0.60
2018-12-02T08:35:25.347Z,0.80
2018-12-02T08:37:54.894Z,0.53
2018-12-02T08:40:23.067Z,0.70
2018-12-02T08:42:51.251Z,1.67
2018-12-02T08:45:19.494Z,0.80
2018-12-02T08:47:47.666Z,0.90
2018-12-02T08:50:30.531Z,0.60
2018-12-02T08:52:58.715Z,0.87
2018-12-02T08:55:26.911Z,0.90
2018-12-02T08:57:55.159Z,0.37
2018-12-02T09:00:23.504Z,0.50
2018-12-02T09:02:54.803Z,0.60
2018-12-02T09:05:23.026Z,0.77
2018-12-02T09:07:51.586Z,1.20
2018-12-02T09:10:22.890Z,0.90
2018-12-02T09:12:53.295Z,1.20
2018-12-02T09:15:21.478Z,0.90
2018-12-02T09:17:49.630Z,1.10
2018-12-02T09:20:21.287Z,1.13
2018-12-02T09:22:49.524Z,2.00
2018-12-02T09:25:17.708Z,1.20
2018-12-02T09:27:45.978Z,1.57
2018-12-02T09:30:15.448Z,2.73
2018-12-02T09:32:43.673Z,1.20
2018-12-02T09:35:12.056Z,1.93
2018-12-02T09:37:40.276Z,1.10
2018-12-02T09:40:09.937Z,1.00
2018-12-02T09:42:38.316Z,1.50
2018-12-02T09:45:10.377Z,1.33
2018-12-02T09:47:38.547Z,0.80
2018-12-02T09:50:09.303Z,0.70
2018-12-02T09:52:37.498Z,1.03
2018-12-02T09:56:12.175Z,0.50
2018-12-02T09:58:40.383Z,0.60
2018-12-02T10:01:08.575Z,0.73
2018-12-02T10:03:36.764Z,0.60
2018-12-02T10:06:05.091Z,0.60
2018-12-02T10:08:33.285Z,2.10
2018-12-02T10:11:01.507Z,0.67
2018-12-02T10:13:29.817Z,0.40
2018-12-02T10:15:58.161Z,0.60
2018-12-02T10:18:26.329Z,1.60
2018-12-02T10:20:54.523Z,1.03
2018-12-02T10:23:22.691Z,1.63
2018-12-02T10:25:50.914Z,0.67
2018-12-02T10:28:19.084Z,0.47
2018-12-02T10:30:47.280Z,0.80
2018-12-02T10:33:15.660Z,1.43
2018-12-02T10:35:43.848Z,1.23
2018-12-02T10:38:12.012Z,0.90
2018-12-02T10:40:40.211Z,2.30
2018-12-02T10:43:08.374Z,1.00
2018-12-02T10:45:36.579Z,1.00
2018-12-02T10:48:06.822Z,0.83
2018-12-02T10:50:35.676Z,1.40
2018-12-02T10:53:09.517Z,1.40
2018-12-02T10:55:42.264Z,1.23
2018-12-02T10:58:12.076Z,0.90
2018-12-02T11:00:45.583Z,1.23
2018-12-02T11:03:13.810Z,1.07
2018-12-02T11:05:41.999Z,1.27
2018-12-02T11:08:10.151Z,1.87
2018-12-02T11:10:38.346Z,2.20
2018-12-02T11:13:06.538Z,1.97
2018-12-02T11:15:34.722Z,1.10
2018-12-02T11:18:02.913Z,1.40
2018-12-02T11:20:31.100Z,1.07
2018-12-02T11:22:59.279Z,1.40
2018-12-02T11:25:27.458Z,1.40
2018-12-02T11:27:55.659Z,1.40
2018-12-02T11:30:23.876Z,1.50
2018-12-02T11:32:52.043Z,1.50
2018-12-02T11:35:20.227Z,1.90
2018-12-02T11:37:48.427Z,1.50
2018-12-02T11:40:17.660Z,2.30
2018-12-02T11:42:46.106Z,1.70
2018-12-02T11:45:14.938Z,2.00
2018-12-02T11:47:45.943Z,2.00
2018-12-02T11:50:16.059Z,2.47
2018-12-02T11:52:44.234Z,2.23
2018-12-02T11:55:13.225Z,2.60
2018-12-02T11:57:41.392Z,3.47
2018-12-02T12:00:14.840Z,3.00
2018-12-02T12:02:43.071Z,2.83
2018-12-02T12:05:11.631Z,2.67
2018-12-02T12:07:40.242Z,3.00
2018-12-02T12:10:25.670Z,3.20
2018-12-02T12:12:54.887Z,3.93
2018-12-02T12:15:26.672Z,2.63
2018-12-02T12:17:55.359Z,2.63
2018-12-02T12:20:33.566Z,2.37
2018-12-02T12:23:01.738Z,2.90
2018-12-02T12:25:29.977Z,2.40
2018-12-02T12:27:58.615Z,3.50
2018-12-02T12:30:27.887Z,2.70
2018-12-02T12:32:56.034Z,3.03
2018-12-02T12:35:24.531Z,4.73
2018-12-02T12:37:52.781Z,2.90
2018-12-02T12:40:23.205Z,3.77
2018-12-02T12:43:27.547Z,3.60
2018-12-02T12:45:55.778Z,2.33
2018-12-02T12:48:23.942Z,2.60
2018-12-02T12:50:52.138Z,2.33
2018-12-02T12:53:20.303Z,2.30
2018-12-02T12:55:51.072Z,2.40
2018-12-02T12:58:17.483Z,2.17
2018-12-02T13:00:45.728Z,2.03
2018-12-02T13:03:13.935Z,1.90
2018-12-02T13:05:42.191Z,3.93
2018-12-02T13:08:11.406Z,2.80
2018-12-02T13:10:39.591Z,2.20
2018-12-02T13:13:07.782Z,4.33
2018-12-02T13:15:36.059Z,3.60
2018-12-02T13:18:06.283Z,1.90
2018-12-02T13:20:47.670Z,2.73
2018-12-02T13:23:15.872Z,2.57
2018-12-02T13:25:44.046Z,3.27
2018-12-02T13:28:12.225Z,2.50
2018-12-02T13:30:40.770Z,2.97
2018-12-02T13:33:08.992Z,2.27
2018-12-02T13:35:37.883Z,2.30
2018-12-02T13:38:06.241Z,2.00
2018-12-02T13:40:34.452Z,2.80
2018-12-02T13:43:07.493Z,3.30
2018-12-02T13:45:36.129Z,2.97
2018-12-02T13:48:04.970Z,1.97
2018-12-02T13:50:33.191Z,2.30
2018-12-02T13:53:01.383Z,2.27
2018-12-02T13:55:30.497Z,3.33
2018-12-02T13:57:59.486Z,2.80
2018-12-02T14:00:28.203Z,2.13
2018-12-02T14:03:09.966Z,2.03
2018-12-02T14:05:42.066Z,1.70
2018-12-02T14:08:10.263Z,2.50
2018-12-02T14:10:38.544Z,4.10
2018-12-02T14:13:08.383Z,1.80
2018-12-02T14:16:44.053Z,2.93
2018-12-02T14:19:13.104Z,2.50
2018-12-02T14:21:41.396Z,3.67
2018-12-02T14:24:10.837Z,3.83
2018-12-02T14:26:41.349Z,3.97
2018-12-02T14:29:22.334Z,2.63
2018-12-02T14:31:54.430Z,4.57
2018-12-02T14:34:22.608Z,1.50
2018-12-02T14:36:50.793Z,2.10
2018-12-02T14:39:18.956Z,1.93
2018-12-02T14:41:47.218Z,1.73
2018-12-02T14:44:15.375Z,2.50
2018-12-02T14:46:43.611Z,1.50
2018-12-02T14:49:11.824Z,2.00
2018-12-02T14:51:40.094Z,1.30
2018-12-02T14:54:08.310Z,2.53
2018-12-02T14:56:36.548Z,1.33
2018-12-02T14:59:04.962Z,2.73
2018-12-02T15:01:33.170Z,2.07
2018-12-02T15:04:01.332Z,1.40
2018-12-02T15:06:29.551Z,1.30
2018-12-02T15:08:57.745Z,1.77
2018-12-02T15:11:26.005Z,1.37
2018-12-02T15:13:54.275Z,1.60
2018-12-02T15:16:22.552Z,2.20
2018-12-02T15:18:50.782Z,1.70
2018-12-02T15:21:19.018Z,3.23
2018-12-02T15:23:47.224Z,1.57
2018-12-02T15:26:15.427Z,3.47
2018-12-02T15:28:43.598Z,1.70
2018-12-02T15:31:11.795Z,3.27
2018-12-02T15:33:40.012Z,2.17
2018-12-02T15:36:08.258Z,2.57
2018-12-02T15:38:36.473Z,3.60
2018-12-02T15:41:04.957Z,2.23
2018-12-02T15:43:33.171Z,2.93
2018-12-02T15:46:01.342Z,3.27
2018-12-02T15:48:30.504Z,2.50
2018-12-02T15:50:58.711Z,2.53
2018-12-02T15:53:26.920Z,2.70
2018-12-02T15:55:55.115Z,3.10
2018-12-02T15:58:23.716Z,3.27
2018-12-02T16:00:52.064Z,2.97
2018-12-02T16:03:20.327Z,3.20
2018-12-02T16:05:48.528Z,3.77
2018-12-02T16:08:16.720Z,4.00
2018-12-02T16:10:44.887Z,3.30
2018-12-02T16:13:13.133Z,3.60
2018-12-02T16:15:41.294Z,3.77
2018-12-02T16:18:10.998Z,3.43
2018-12-02T16:20:45.619Z,3.57
2018-12-02T16:23:15.352Z,4.03
2018-12-02T16:25:43.511Z,3.30
2018-12-02T16:28:11.806Z,3.37
2018-12-02T16:30:40.076Z,4.07
2018-12-02T16:33:08.268Z,3.50
2018-12-02T16:35:36.748Z,3.53
2018-12-02T16:38:06.077Z,3.40
2018-12-02T16:40:34.276Z,3.33
2018-12-02T16:43:02.499Z,3.80
2018-12-02T16:45:31.301Z,3.87
2018-12-02T16:47:59.021Z,3.93
2018-12-02T16:50:33.777Z,3.40
2018-12-02T16:53:03.399Z,3.30
2018-12-02T16:55:34.034Z,3.30
2018-12-02T16:58:07.711Z,3.23
2018-12-02T17:00:45.551Z,4.10
2018-12-02T17:03:13.879Z,3.77
2018-12-02T17:05:42.150Z,3.30
2018-12-02T17:08:10.378Z,3.30
2018-12-02T17:10:38.570Z,3.43
2018-12-02T17:13:06.991Z,3.00
2018-12-02T17:15:35.562Z,3.30
2018-12-02T17:18:03.992Z,2.77
2018-12-02T17:20:32.212Z,3.27
2018-12-02T17:23:01.145Z,3.97
2018-12-02T17:25:30.755Z,4.20
2018-12-02T17:27:59.059Z,2.50
2018-12-02T17:30:34.155Z,3.67
2018-12-02T17:33:02.748Z,2.67
2018-12-02T17:35:30.939Z,2.40
2018-12-02T17:37:59.355Z,2.40
2018-12-02T17:40:28.784Z,2.47
2018-12-02T17:42:57.119Z,3.40
2018-12-02T17:45:25.630Z,3.93
2018-12-02T17:47:53.994Z,4.17
2018-12-02T17:50:22.226Z,3.17
2018-12-02T17:52:50.735Z,3.13
2018-12-02T17:55:19.061Z,2.50
2018-12-02T17:57:47.362Z,2.20
2018-12-02T18:00:19.985Z,2.93
2018-12-02T18:02:48.260Z,2.70
2018-12-02T18:05:18.387Z,2.43
2018-12-02T18:07:46.683Z,2.77
2018-12-02T18:10:15.147Z,3.30
2018-12-02T18:12:43.753Z,3.93
2018-12-02T18:15:15.803Z,2.53
2018-12-02T18:17:44.122Z,2.00
2018-12-02T18:20:13.526Z,2.07
2018-12-02T18:25:24.442Z,2.90
2018-12-02T18:27:52.735Z,1.77
2018-12-02T18:30:25.107Z,2.03
2018-12-02T18:33:01.211Z,2.67
2018-12-02T18:35:35.080Z,2.43
2018-12-02T18:38:06.592Z,1.67
2018-12-02T18:40:34.995Z,2.13
2018-12-02T18:43:03.253Z,3.63
2018-12-02T18:45:32.157Z,3.13
2018-12-02T18:48:00.344Z,1.93
2018-12-02T18:50:28.518Z,2.03
2018-12-02T18:52:57.754Z,1.90
2018-12-02T18:55:25.939Z,1.63
2018-12-02T18:57:54.219Z,2.00
2018-12-02T19:00:27.701Z,2.90
2018-12-02T19:02:56.831Z,1.90
2018-12-02T19:05:25.063Z,2.10
2018-12-02T19:07:53.240Z,3.83
2018-12-02T19:10:23.956Z,1.70
2018-12-02T19:12:52.305Z,2.53
2018-12-02T19:15:21.200Z,1.80
2018-12-02T19:17:49.937Z,3.83
2018-12-02T19:20:33.508Z,2.20
2018-12-02T19:23:03.614Z,1.97
2018-12-02T19:25:32.439Z,3.70
2018-12-02T19:28:01.809Z,2.90
2018-12-02T19:30:32.999Z,2.13
2018-12-02T19:32:59.520Z,1.70
2018-12-02T19:35:33.769Z,2.53
2018-12-02T19:38:09.444Z,2.03
2018-12-02T19:40:39.281Z,1.80
2018-12-02T19:43:08.891Z,2.57
2018-12-02T19:45:37.654Z,2.10
2018-12-02T19:48:06.410Z,1.70
2018-12-02T19:50:36.108Z,2.37
2018-12-02T19:53:07.755Z,2.20
2018-12-02T19:55:36.590Z,1.60
2018-12-02T19:58:08.294Z,1.83
2018-12-02T20:00:41.820Z,2.37
2018-12-02T20:03:10.917Z,2.47
2018-12-02T20:05:39.367Z,2.00
2018-12-02T20:08:09.023Z,2.10
2018-12-02T20:10:37.309Z,2.13
2018-12-02T20:13:10.191Z,2.10
2018-12-02T20:16:45.070Z,2.57
2018-12-02T20:19:18.667Z,2.20
2018-12-02T20:21:46.965Z,2.43
2018-12-02T20:24:20.504Z,2.17
2018-12-02T20:26:48.718Z,2.40
2018-12-02T20:29:16.929Z,2.27
2018-12-02T20:31:45.103Z,1.70
2018-12-02T20:34:13.471Z,2.87
2018-12-02T20:36:41.871Z,2.20
2018-12-02T20:39:11.059Z,3.77
2018-12-02T20:41:39.859Z,2.20
2018-12-02T20:44:08.042Z,1.80
2018-12-02T20:46:36.269Z,2.00
2018-12-02T20:49:04.561Z,2.13
2018-12-02T20:51:32.849Z,3.53
2018-12-02T20:56:59.742Z,1.60
2018-12-02T20:59:27.954Z,1.90
2018-12-02T21:01:57.126Z,1.97
2018-12-02T21:04:25.335Z,4.17
2018-12-02T21:06:53.497Z,2.90
2018-12-02T21:09:21.682Z,1.70
2018-12-02T21:11:49.863Z,2.53
2018-12-02T21:14:18.068Z,1.87
2018-12-02T21:16:46.243Z,1.97
2018-12-02T21:19:14.430Z,2.40
2018-12-02T21:21:42.595Z,2.10
2018-12-02T21:24:10.784Z,2.03
2018-12-02T21:26:38.966Z,1.70
2018-12-02T21:29:07.139Z,2.20
2018-12-02T21:31:35.344Z,1.67
2018-12-02T21:34:03.547Z,2.23
2018-12-02T21:36:32.466Z,2.10
2018-12-02T21:39:00.872Z,2.30
2018-12-02T21:41:29.307Z,2.27
2018-12-02T21:43:57.500Z,1.53
2018-12-02T21:46:26.284Z,2.13
2018-12-02T21:48:54.625Z,2.90
2018-12-02T21:51:22.834Z,3.20
2018-12-02T21:53:51.264Z,3.90
2018-12-02T21:56:19.631Z,2.23
2018-12-02T21:58:47.819Z,2.47
2018-12-02T22:01:16.055Z,3.50
2018-12-02T22:03:44.223Z,3.80
2018-12-02T22:06:12.927Z,2.70
2018-12-02T22:08:41.108Z,3.30
2018-12-02T22:11:09.343Z,2.97
2018-12-02T22:13:43.240Z,2.47
2018-12-02T22:16:06.084Z,3.13
2018-12-02T22:18:34.267Z,2.10
2018-12-02T22:21:02.712Z,3.70
2018-12-02T22:23:30.925Z,3.97
2018-12-02T22:25:59.471Z,2.53
2018-12-02T22:28:27.660Z,2.10
2018-12-02T22:30:55.890Z,3.83
2018-12-02T22:33:24.071Z,1.43
2018-12-02T22:35:52.379Z,1.83
2018-12-02T22:38:20.555Z,1.87
2018-12-02T22:40:48.936Z,1.13
2018-12-02T22:43:18.192Z,1.53
2018-12-02T22:45:46.411Z,1.20
2018-12-02T22:48:14.590Z,1.40
2018-12-02T22:50:42.824Z,1.03
2018-12-02T22:53:11.664Z,1.00
2018-12-02T22:55:39.868Z,1.30
2018-12-02T22:58:08.337Z,0.97
2018-12-02T23:00:41.993Z,1.10
2018-12-02T23:03:12.146Z,2.77
2018-12-02T23:05:44.783Z,1.10
2018-12-02T23:08:13.003Z,0.97
2018-12-02T23:10:41.247Z,0.80
2018-12-02T23:13:10.124Z,1.00
2018-12-02T23:15:39.340Z,1.13
2018-12-02T23:18:09.656Z,1.00
2018-12-02T23:20:37.890Z,1.57
2018-12-02T23:23:06.129Z,1.23
2018-12-02T23:25:34.354Z,1.00
2018-12-02T23:28:02.609Z,1.40
2018-12-02T23:30:34.416Z,2.17
2018-12-02T23:33:02.605Z,2.03
2018-12-02T23:35:30.860Z,1.07
2018-12-02T23:37:59.039Z,1.23
2018-12-02T23:40:27.248Z,1.70
2018-12-02T23:42:55.436Z,1.30
2018-12-02T23:45:23.699Z,1.40
2018-12-02T23:47:51.890Z,2.13
2018-12-02T23:50:21.539Z,2.10
2018-12-02T23:52:49.741Z,1.97
2018-12-02T23:55:18.870Z,2.43
2018-12-02T23:57:47.144Z,3.17
